sensor_id;sensor_type;location;lat;lon;timestamp;temperature;humidity
12426;DHT22;6277;49.824;9.562;2023-03-01T00:01:00;2.20;56.60
12426;DHT22;6277;49.824;9.562;2023-03-01T00:03:25;2.20;56.70
12426;DHT22;6277;49.824;9.562;2023-03-01T00:05:51;2.10;56.60
12426;DHT22;6277;49.824;9.562;2023-03-01T00:08:16;2.10;56.60
12426;DHT22;6277;49.824;9.562;2023-03-01T00:10:42;2.10;56.60
12426;DHT22;6277;49.824;9.562;2023-03-01T00:13:07;2.10;56.70
12426;DHT22;6277;49.824;9.562;2023-03-01T00:15:33;2.10;56.70
12426;DHT22;6277;49.824;9.562;2023-03-01T00:18:00;2.10;56.70
12426;DHT22;6277;49.824;9.562;2023-03-01T00:20:25;2.10;56.70
12426;DHT22;6277;49.824;9.562;2023-03-01T00:22:51;2.10;56.70
12426;DHT22;6277;49.824;9.562;2023-03-01T00:25:16;2.10;56.70
12426;DHT22;6277;49.824;9.562;2023-03-01T00:27:42;2.00;56.70
12426;DHT22;6277;49.824;9.562;2023-03-01T00:30:08;2.00;56.80
12426;DHT22;6277;49.824;9.562;2023-03-01T00:32:33;2.00;56.80
12426;DHT22;6277;49.824;9.562;2023-03-01T00:34:59;2.00;56.80
12426;DHT22;6277;49.824;9.562;2023-03-01T00:37:24;2.00;56.90
12426;DHT22;6277;49.824;9.562;2023-03-01T00:39:50;2.00;56.90
12426;DHT22;6277;49.824;9.562;2023-03-01T00:42:16;1.90;56.80
12426;DHT22;6277;49.824;9.562;2023-03-01T00:44:42;1.90;56.90
12426;DHT22;6277;49.824;9.562;2023-03-01T00:47:08;1.90;56.90
12426;DHT22;6277;49.824;9.562;2023-03-01T00:49:34;1.90;56.90
12426;DHT22;6277;49.824;9.562;2023-03-01T00:51:59;1.90;57.50
12426;DHT22;6277;49.824;9.562;2023-03-01T00:54:25;1.90;56.90
12426;DHT22;6277;49.824;9.562;2023-03-01T00:56:50;1.90;56.90
12426;DHT22;6277;49.824;9.562;2023-03-01T00:59:16;1.90;56.90
12426;DHT22;6277;49.824;9.562;2023-03-01T01:01:41;1.90;56.90
12426;DHT22;6277;49.824;9.562;2023-03-01T01:04:10;1.90;57.20
12426;DHT22;6277;49.824;9.562;2023-03-01T01:06:38;1.90;57.00
12426;DHT22;6277;49.824;9.562;2023-03-01T01:09:06;1.80;57.00
12426;DHT22;6277;49.824;9.562;2023-03-01T01:11:32;1.80;57.10
12426;DHT22;6277;49.824;9.562;2023-03-01T01:13:58;1.80;57.10
12426;DHT22;6277;49.824;9.562;2023-03-01T01:16:25;1.80;57.20
12426;DHT22;6277;49.824;9.562;2023-03-01T01:18:52;1.80;57.30
12426;DHT22;6277;49.824;9.562;2023-03-01T01:21:21;1.80;57.30
12426;DHT22;6277;49.824;9.562;2023-03-01T01:23:47;1.90;57.30
12426;DHT22;6277;49.824;9.562;2023-03-01T01:26:18;1.80;57.40
12426;DHT22;6277;49.824;9.562;2023-03-01T01:28:45;1.80;57.40
12426;DHT22;6277;49.824;9.562;2023-03-01T01:31:11;1.90;57.40
12426;DHT22;6277;49.824;9.562;2023-03-01T01:33:37;1.90;57.40
12426;DHT22;6277;49.824;9.562;2023-03-01T01:36:04;1.90;57.40
12426;DHT22;6277;49.824;9.562;2023-03-01T01:38:30;1.90;57.40
12426;DHT22;6277;49.824;9.562;2023-03-01T01:40:55;1.90;57.30
12426;DHT22;6277;49.824;9.562;2023-03-01T01:43:27;1.90;57.40
12426;DHT22;6277;49.824;9.562;2023-03-01T01:46:02;1.90;57.40
12426;DHT22;6277;49.824;9.562;2023-03-01T01:48:43;1.90;57.50
12426;DHT22;6277;49.824;9.562;2023-03-01T01:51:17;1.90;57.50
12426;DHT22;6277;49.824;9.562;2023-03-01T01:53:46;2.00;57.50
12426;DHT22;6277;49.824;9.562;2023-03-01T01:56:14;2.00;57.50
12426;DHT22;6277;49.824;9.562;2023-03-01T01:58:41;2.00;57.50
12426;DHT22;6277;49.824;9.562;2023-03-01T02:01:09;2.00;57.50
12426;DHT22;6277;49.824;9.562;2023-03-01T02:03:37;2.00;57.40
12426;DHT22;6277;49.824;9.562;2023-03-01T02:06:20;2.00;57.60
12426;DHT22;6277;49.824;9.562;2023-03-01T02:08:48;2.00;57.60
12426;DHT22;6277;49.824;9.562;2023-03-01T02:11:17;2.10;57.50
12426;DHT22;6277;49.824;9.562;2023-03-01T02:13:43;2.10;57.50
12426;DHT22;6277;49.824;9.562;2023-03-01T02:16:11;2.10;57.40
12426;DHT22;6277;49.824;9.562;2023-03-01T02:18:39;2.10;57.50
12426;DHT22;6277;49.824;9.562;2023-03-01T02:21:08;2.10;57.50
12426;DHT22;6277;49.824;9.562;2023-03-01T02:23:38;2.10;57.50
12426;DHT22;6277;49.824;9.562;2023-03-01T02:26:11;2.10;57.50
12426;DHT22;6277;49.824;9.562;2023-03-01T02:28:42;2.10;57.60
12426;DHT22;6277;49.824;9.562;2023-03-01T02:31:09;2.10;57.60
12426;DHT22;6277;49.824;9.562;2023-03-01T02:33:55;2.10;57.60
12426;DHT22;6277;49.824;9.562;2023-03-01T02:36:47;2.10;57.70
12426;DHT22;6277;49.824;9.562;2023-03-01T02:39:40;2.10;57.90
12426;DHT22;6277;49.824;9.562;2023-03-01T02:42:11;2.10;57.90
12426;DHT22;6277;49.824;9.562;2023-03-01T02:44:37;2.10;57.70
12426;DHT22;6277;49.824;9.562;2023-03-01T02:47:03;2.10;57.70
12426;DHT22;6277;49.824;9.562;2023-03-01T02:49:31;2.10;58.30
12426;DHT22;6277;49.824;9.562;2023-03-01T02:55:06;2.20;58.00
12426;DHT22;6277;49.824;9.562;2023-03-01T02:57:34;2.20;57.80
12426;DHT22;6277;49.824;9.562;2023-03-01T03:00:08;2.20;57.80
12426;DHT22;6277;49.824;9.562;2023-03-01T03:02:35;2.20;57.80
12426;DHT22;6277;49.824;9.562;2023-03-01T03:05:09;2.20;57.70
12426;DHT22;6277;49.824;9.562;2023-03-01T03:07:37;2.30;57.80
12426;DHT22;6277;49.824;9.562;2023-03-01T03:10:05;2.30;57.80
12426;DHT22;6277;49.824;9.562;2023-03-01T03:12:31;2.30;57.70
12426;DHT22;6277;49.824;9.562;2023-03-01T03:14:56;2.30;57.70
12426;DHT22;6277;49.824;9.562;2023-03-01T03:17:22;2.30;57.70
12426;DHT22;6277;49.824;9.562;2023-03-01T03:19:48;2.30;57.70
12426;DHT22;6277;49.824;9.562;2023-03-01T03:22:14;2.30;57.70
12426;DHT22;6277;49.824;9.562;2023-03-01T03:24:39;2.30;57.70
12426;DHT22;6277;49.824;9.562;2023-03-01T03:27:05;2.30;57.70
12426;DHT22;6277;49.824;9.562;2023-03-01T03:29:32;2.30;57.80
12426;DHT22;6277;49.824;9.562;2023-03-01T03:31:57;2.30;57.80
12426;DHT22;6277;49.824;9.562;2023-03-01T03:34:23;2.30;57.80
12426;DHT22;6277;49.824;9.562;2023-03-01T03:36:53;2.30;57.80
12426;DHT22;6277;49.824;9.562;2023-03-01T03:39:22;2.30;57.90
12426;DHT22;6277;49.824;9.562;2023-03-01T03:41:48;2.40;58.10
12426;DHT22;6277;49.824;9.562;2023-03-01T03:44:14;2.40;57.80
12426;DHT22;6277;49.824;9.562;2023-03-01T03:46:39;2.40;57.80
12426;DHT22;6277;49.824;9.562;2023-03-01T03:49:04;2.40;57.80
12426;DHT22;6277;49.824;9.562;2023-03-01T03:51:30;2.40;57.90
12426;DHT22;6277;49.824;9.562;2023-03-01T03:53:56;2.40;57.90
12426;DHT22;6277;49.824;9.562;2023-03-01T03:56:21;2.40;57.80
12426;DHT22;6277;49.824;9.562;2023-03-01T03:58:51;2.40;57.80
12426;DHT22;6277;49.824;9.562;2023-03-01T04:01:17;2.50;57.80
12426;DHT22;6277;49.824;9.562;2023-03-01T04:03:42;2.50;57.80
12426;DHT22;6277;49.824;9.562;2023-03-01T04:06:11;2.40;57.80
12426;DHT22;6277;49.824;9.562;2023-03-01T04:08:37;2.40;57.70
12426;DHT22;6277;49.824;9.562;2023-03-01T04:11:04;2.40;57.80
12426;DHT22;6277;49.824;9.562;2023-03-01T04:13:51;2.40;57.60
12426;DHT22;6277;49.824;9.562;2023-03-01T04:16:17;2.30;57.70
12426;DHT22;6277;49.824;9.562;2023-03-01T04:18:43;2.30;57.70
12426;DHT22;6277;49.824;9.562;2023-03-01T04:21:09;2.30;57.70
12426;DHT22;6277;49.824;9.562;2023-03-01T04:23:54;2.30;57.70
12426;DHT22;6277;49.824;9.562;2023-03-01T04:26:20;2.30;57.80
12426;DHT22;6277;49.824;9.562;2023-03-01T04:28:46;2.20;57.80
12426;DHT22;6277;49.824;9.562;2023-03-01T04:31:16;2.20;57.80
12426;DHT22;6277;49.824;9.562;2023-03-01T04:33:46;2.20;57.90
12426;DHT22;6277;49.824;9.562;2023-03-01T04:36:14;2.20;57.90
12426;DHT22;6277;49.824;9.562;2023-03-01T04:38:40;2.20;57.90
12426;DHT22;6277;49.824;9.562;2023-03-01T04:41:08;2.20;58.00
12426;DHT22;6277;49.824;9.562;2023-03-01T04:43:34;2.20;58.00
12426;DHT22;6277;49.824;9.562;2023-03-01T04:46:01;2.20;58.00
12426;DHT22;6277;49.824;9.562;2023-03-01T04:48:28;2.20;58.10
12426;DHT22;6277;49.824;9.562;2023-03-01T04:50:54;2.20;58.10
12426;DHT22;6277;49.824;9.562;2023-03-01T04:53:19;2.20;58.10
12426;DHT22;6277;49.824;9.562;2023-03-01T04:55:45;2.20;58.10
12426;DHT22;6277;49.824;9.562;2023-03-01T04:58:10;2.20;58.10
12426;DHT22;6277;49.824;9.562;2023-03-01T05:00:36;2.20;58.10
12426;DHT22;6277;49.824;9.562;2023-03-01T05:03:01;2.20;58.10
12426;DHT22;6277;49.824;9.562;2023-03-01T05:05:33;2.20;58.20
12426;DHT22;6277;49.824;9.562;2023-03-01T05:08:01;2.30;58.30
12426;DHT22;6277;49.824;9.562;2023-03-01T05:10:29;2.30;58.30
12426;DHT22;6277;49.824;9.562;2023-03-01T05:12:55;2.30;58.30
12426;DHT22;6277;49.824;9.562;2023-03-01T05:15:23;2.20;58.20
12426;DHT22;6277;49.824;9.562;2023-03-01T05:17:51;2.30;58.20
12426;DHT22;6277;49.824;9.562;2023-03-01T05:20:17;2.30;58.20
12426;DHT22;6277;49.824;9.562;2023-03-01T05:22:42;2.30;58.20
12426;DHT22;6277;49.824;9.562;2023-03-01T05:25:08;2.30;58.20
12426;DHT22;6277;49.824;9.562;2023-03-01T05:27:35;2.30;58.20
12426;DHT22;6277;49.824;9.562;2023-03-01T05:30:01;2.30;58.20
12426;DHT22;6277;49.824;9.562;2023-03-01T05:32:41;2.30;58.20
12426;DHT22;6277;49.824;9.562;2023-03-01T05:35:09;2.30;58.20
12426;DHT22;6277;49.824;9.562;2023-03-01T05:37:42;2.20;58.10
12426;DHT22;6277;49.824;9.562;2023-03-01T05:40:09;2.20;58.20
12426;DHT22;6277;49.824;9.562;2023-03-01T05:43:01;2.20;58.20
12426;DHT22;6277;49.824;9.562;2023-03-01T05:45:27;2.20;58.20
12426;DHT22;6277;49.824;9.562;2023-03-01T05:47:54;2.20;58.20
12426;DHT22;6277;49.824;9.562;2023-03-01T05:50:23;2.20;58.30
12426;DHT22;6277;49.824;9.562;2023-03-01T05:53:02;2.20;58.40
12426;DHT22;6277;49.824;9.562;2023-03-01T05:55:29;2.20;58.40
12426;DHT22;6277;49.824;9.562;2023-03-01T05:57:58;2.20;58.40
12426;DHT22;6277;49.824;9.562;2023-03-01T06:00:24;2.20;58.40
12426;DHT22;6277;49.824;9.562;2023-03-01T06:02:50;2.20;58.40
12426;DHT22;6277;49.824;9.562;2023-03-01T06:05:17;2.20;58.40
12426;DHT22;6277;49.824;9.562;2023-03-01T06:07:43;2.20;58.40
12426;DHT22;6277;49.824;9.562;2023-03-01T06:10:10;2.20;58.50
12426;DHT22;6277;49.824;9.562;2023-03-01T06:12:36;2.20;58.50
12426;DHT22;6277;49.824;9.562;2023-03-01T06:15:04;2.30;58.50
12426;DHT22;6277;49.824;9.562;2023-03-01T06:17:31;2.30;58.60
12426;DHT22;6277;49.824;9.562;2023-03-01T06:19:57;2.30;58.60
12426;DHT22;6277;49.824;9.562;2023-03-01T06:22:23;2.40;58.60
12426;DHT22;6277;49.824;9.562;2023-03-01T06:24:48;2.40;58.70
12426;DHT22;6277;49.824;9.562;2023-03-01T06:27:14;2.50;58.70
12426;DHT22;6277;49.824;9.562;2023-03-01T06:29:39;2.50;58.60
12426;DHT22;6277;49.824;9.562;2023-03-01T06:32:05;2.60;58.70
12426;DHT22;6277;49.824;9.562;2023-03-01T06:34:31;2.60;58.60
12426;DHT22;6277;49.824;9.562;2023-03-01T06:36:57;2.60;58.60
12426;DHT22;6277;49.824;9.562;2023-03-01T06:39:22;2.70;58.60
12426;DHT22;6277;49.824;9.562;2023-03-01T06:41:48;2.70;58.50
12426;DHT22;6277;49.824;9.562;2023-03-01T06:44:13;2.70;58.50
12426;DHT22;6277;49.824;9.562;2023-03-01T06:46:39;2.80;58.60
12426;DHT22;6277;49.824;9.562;2023-03-01T06:49:05;2.80;58.50
12426;DHT22;6277;49.824;9.562;2023-03-01T06:51:35;2.80;58.40
12426;DHT22;6277;49.824;9.562;2023-03-01T06:54:00;2.80;58.50
12426;DHT22;6277;49.824;9.562;2023-03-01T06:56:26;2.80;58.40
12426;DHT22;6277;49.824;9.562;2023-03-01T06:58:51;2.80;58.40
12426;DHT22;6277;49.824;9.562;2023-03-01T07:01:17;2.80;58.90
12426;DHT22;6277;49.824;9.562;2023-03-01T07:03:43;2.80;58.40
12426;DHT22;6277;49.824;9.562;2023-03-01T07:06:09;2.80;58.40
12426;DHT22;6277;49.824;9.562;2023-03-01T07:08:35;2.80;58.40
12426;DHT22;6277;49.824;9.562;2023-03-01T07:11:00;2.80;58.40
12426;DHT22;6277;49.824;9.562;2023-03-01T07:13:27;2.80;58.40
12426;DHT22;6277;49.824;9.562;2023-03-01T07:15:53;2.80;58.40
12426;DHT22;6277;49.824;9.562;2023-03-01T07:18:18;2.90;58.40
12426;DHT22;6277;49.824;9.562;2023-03-01T07:20:44;2.90;58.40
12426;DHT22;6277;49.824;9.562;2023-03-01T07:23:10;2.90;58.40
12426;DHT22;6277;49.824;9.562;2023-03-01T07:25:35;2.90;58.40
12426;DHT22;6277;49.824;9.562;2023-03-01T07:28:01;2.90;58.40
12426;DHT22;6277;49.824;9.562;2023-03-01T07:30:27;2.90;58.40
12426;DHT22;6277;49.824;9.562;2023-03-01T07:32:54;3.00;58.50
12426;DHT22;6277;49.824;9.562;2023-03-01T07:35:20;2.90;58.40
12426;DHT22;6277;49.824;9.562;2023-03-01T07:37:46;3.00;58.50
12426;DHT22;6277;49.824;9.562;2023-03-01T07:40:12;3.00;58.50
12426;DHT22;6277;49.824;9.562;2023-03-01T07:42:37;3.00;58.50
12426;DHT22;6277;49.824;9.562;2023-03-01T07:45:04;3.10;58.50
12426;DHT22;6277;49.824;9.562;2023-03-01T07:47:31;3.10;58.50
12426;DHT22;6277;49.824;9.562;2023-03-01T07:49:56;3.10;58.60
12426;DHT22;6277;49.824;9.562;2023-03-01T07:52:22;3.10;58.50
12426;DHT22;6277;49.824;9.562;2023-03-01T07:54:47;3.20;58.50
12426;DHT22;6277;49.824;9.562;2023-03-01T07:57:13;3.20;58.50
12426;DHT22;6277;49.824;9.562;2023-03-01T07:59:38;3.30;58.60
12426;DHT22;6277;49.824;9.562;2023-03-01T08:02:04;3.30;58.50
12426;DHT22;6277;49.824;9.562;2023-03-01T08:04:30;3.40;58.50
12426;DHT22;6277;49.824;9.562;2023-03-01T08:06:55;3.40;58.60
12426;DHT22;6277;49.824;9.562;2023-03-01T08:09:21;3.40;58.50
12426;DHT22;6277;49.824;9.562;2023-03-01T08:11:47;3.50;58.50
12426;DHT22;6277;49.824;9.562;2023-03-01T08:14:12;3.50;58.40
12426;DHT22;6277;49.824;9.562;2023-03-01T08:16:38;3.60;58.50
12426;DHT22;6277;49.824;9.562;2023-03-01T08:19:09;3.60;58.50
12426;DHT22;6277;49.824;9.562;2023-03-01T08:21:35;3.70;58.60
12426;DHT22;6277;49.824;9.562;2023-03-01T08:24:02;3.70;58.50
12426;DHT22;6277;49.824;9.562;2023-03-01T08:26:28;3.80;58.50
12426;DHT22;6277;49.824;9.562;2023-03-01T08:28:53;3.90;58.50
12426;DHT22;6277;49.824;9.562;2023-03-01T08:31:30;3.90;58.50
12426;DHT22;6277;49.824;9.562;2023-03-01T08:33:59;4.00;58.50
12426;DHT22;6277;49.824;9.562;2023-03-01T08:36:30;4.10;58.50
12426;DHT22;6277;49.824;9.562;2023-03-01T08:38:56;4.10;58.40
12426;DHT22;6277;49.824;9.562;2023-03-01T08:41:22;4.20;58.30
12426;DHT22;6277;49.824;9.562;2023-03-01T08:43:47;4.30;58.30
12426;DHT22;6277;49.824;9.562;2023-03-01T08:46:13;4.30;58.30
12426;DHT22;6277;49.824;9.562;2023-03-01T08:48:39;4.40;58.20
12426;DHT22;6277;49.824;9.562;2023-03-01T08:51:14;4.40;58.20
12426;DHT22;6277;49.824;9.562;2023-03-01T08:53:41;4.50;58.10
12426;DHT22;6277;49.824;9.562;2023-03-01T08:56:07;4.50;58.10
12426;DHT22;6277;49.824;9.562;2023-03-01T08:58:33;4.60;58.10
12426;DHT22;6277;49.824;9.562;2023-03-01T09:00:59;4.60;58.00
12426;DHT22;6277;49.824;9.562;2023-03-01T09:03:25;4.70;58.10
12426;DHT22;6277;49.824;9.562;2023-03-01T09:05:52;4.80;58.10
12426;DHT22;6277;49.824;9.562;2023-03-01T09:08:18;4.80;58.00
12426;DHT22;6277;49.824;9.562;2023-03-01T09:10:44;4.90;58.10
12426;DHT22;6277;49.824;9.562;2023-03-01T09:13:10;4.90;58.00
12426;DHT22;6277;49.824;9.562;2023-03-01T09:15:39;5.00;57.90
12426;DHT22;6277;49.824;9.562;2023-03-01T09:18:05;5.10;57.90
12426;DHT22;6277;49.824;9.562;2023-03-01T09:20:31;5.10;57.90
12426;DHT22;6277;49.824;9.562;2023-03-01T09:22:58;5.20;57.80
12426;DHT22;6277;49.824;9.562;2023-03-01T09:25:24;5.20;57.60
12426;DHT22;6277;49.824;9.562;2023-03-01T09:27:53;5.30;57.80
12426;DHT22;6277;49.824;9.562;2023-03-01T09:30:19;5.30;57.70
12426;DHT22;6277;49.824;9.562;2023-03-01T09:32:44;5.40;57.70
12426;DHT22;6277;49.824;9.562;2023-03-01T09:35:11;5.50;57.80
12426;DHT22;6277;49.824;9.562;2023-03-01T09:37:37;5.50;57.60
12426;DHT22;6277;49.824;9.562;2023-03-01T09:40:06;5.60;57.50
12426;DHT22;6277;49.824;9.562;2023-03-01T09:42:34;5.70;57.50
12426;DHT22;6277;49.824;9.562;2023-03-01T09:45:06;5.70;57.50
12426;DHT22;6277;49.824;9.562;2023-03-01T09:47:35;5.80;57.50
12426;DHT22;6277;49.824;9.562;2023-03-01T09:50:06;5.80;57.40
12426;DHT22;6277;49.824;9.562;2023-03-01T09:52:39;5.90;57.30
12426;DHT22;6277;49.824;9.562;2023-03-01T09:55:12;6.00;57.20
12426;DHT22;6277;49.824;9.562;2023-03-01T09:57:53;6.00;57.20
12426;DHT22;6277;49.824;9.562;2023-03-01T10:00:26;6.10;57.20
12426;DHT22;6277;49.824;9.562;2023-03-01T10:03:17;6.10;57.10
12426;DHT22;6277;49.824;9.562;2023-03-01T10:08:31;6.30;57.40
12426;DHT22;6277;49.824;9.562;2023-03-01T10:11:02;6.30;57.30
12426;DHT22;6277;49.824;9.562;2023-03-01T10:13:49;6.40;57.30
12426;DHT22;6277;49.824;9.562;2023-03-01T10:19:03;6.60;56.90
12426;DHT22;6277;49.824;9.562;2023-03-01T10:21:29;6.60;56.90
12426;DHT22;6277;49.824;9.562;2023-03-01T10:24:08;6.70;56.90
12426;DHT22;6277;49.824;9.562;2023-03-01T10:29:40;6.80;56.60
12426;DHT22;6277;49.824;9.562;2023-03-01T10:32:09;6.80;56.70
12426;DHT22;6277;49.824;9.562;2023-03-01T10:34:36;6.90;56.90
12426;DHT22;6277;49.824;9.562;2023-03-01T10:37:09;7.00;56.70
12426;DHT22;6277;49.824;9.562;2023-03-01T10:39:35;7.00;56.50
12426;DHT22;6277;49.824;9.562;2023-03-01T10:42:07;7.10;56.60
12426;DHT22;6277;49.824;9.562;2023-03-01T10:44:46;7.20;56.70
12426;DHT22;6277;49.824;9.562;2023-03-01T10:49:39;7.30;56.60
12426;DHT22;6277;49.824;9.562;2023-03-01T10:52:20;7.30;56.50
12426;DHT22;6277;49.824;9.562;2023-03-01T10:57:42;7.50;55.90
12426;DHT22;6277;49.824;9.562;2023-03-01T11:03:11;7.60;55.90
12426;DHT22;6277;49.824;9.562;2023-03-01T11:05:37;7.60;55.80
12426;DHT22;6277;49.824;9.562;2023-03-01T11:08:14;7.70;56.10
12426;DHT22;6277;49.824;9.562;2023-03-01T11:10:40;7.80;55.90
12426;DHT22;6277;49.824;9.562;2023-03-01T11:13:08;7.80;55.70
12426;DHT22;6277;49.824;9.562;2023-03-01T11:15:35;7.80;55.60
12426;DHT22;6277;49.824;9.562;2023-03-01T11:18:00;7.80;55.60
12426;DHT22;6277;49.824;9.562;2023-03-01T11:20:34;7.90;55.80
12426;DHT22;6277;49.824;9.562;2023-03-01T11:23:05;7.90;55.80
12426;DHT22;6277;49.824;9.562;2023-03-01T11:25:40;7.90;55.50
12426;DHT22;6277;49.824;9.562;2023-03-01T11:28:13;8.00;55.40
12426;DHT22;6277;49.824;9.562;2023-03-01T11:38:35;8.10;55.10
12426;DHT22;6277;49.824;9.562;2023-03-01T11:41:30;8.10;55.10
12426;DHT22;6277;49.824;9.562;2023-03-01T11:44:14;8.10;54.90
12426;DHT22;6277;49.824;9.562;2023-03-01T11:58:08;8.30;54.90
12426;DHT22;6277;49.824;9.562;2023-03-01T12:03:31;8.40;55.00
12426;DHT22;6277;49.824;9.562;2023-03-01T12:06:33;8.50;55.10
12426;DHT22;6277;49.824;9.562;2023-03-01T12:09:27;8.50;54.30
12426;DHT22;6277;49.824;9.562;2023-03-01T12:22:31;8.80;54.10
12426;DHT22;6277;49.824;9.562;2023-03-01T12:25:27;8.90;54.50
12426;DHT22;6277;49.824;9.562;2023-03-01T12:36:39;9.20;54.20
12426;DHT22;6277;49.824;9.562;2023-03-01T12:50:52;9.60;53.40
12426;DHT22;6277;49.824;9.562;2023-03-01T12:53:32;9.70;52.30
12426;DHT22;6277;49.824;9.562;2023-03-01T12:56:05;9.70;53.20
12426;DHT22;6277;49.824;9.562;2023-03-01T13:04:25;9.80;53.00
12426;DHT22;6277;49.824;9.562;2023-03-01T13:09:54;9.90;53.60
12426;DHT22;6277;49.824;9.562;2023-03-01T13:15:31;10.10;53.20
12426;DHT22;6277;49.824;9.562;2023-03-01T13:17:59;10.20;52.90
12426;DHT22;6277;49.824;9.562;2023-03-01T13:30:58;10.50;52.90
12426;DHT22;6277;49.824;9.562;2023-03-01T13:35:52;10.70;53.40
12426;DHT22;6277;49.824;9.562;2023-03-01T13:41:07;10.90;52.70
12426;DHT22;6277;49.824;9.562;2023-03-01T13:43:36;11.00;53.20
12426;DHT22;6277;49.824;9.562;2023-03-01T13:48:37;11.10;52.70
12426;DHT22;6277;49.824;9.562;2023-03-01T13:51:12;11.20;53.00
12426;DHT22;6277;49.824;9.562;2023-03-01T13:53:45;11.20;52.10
12426;DHT22;6277;49.824;9.562;2023-03-01T13:56:21;11.30;52.40
12426;DHT22;6277;49.824;9.562;2023-03-01T13:58:56;11.30;52.30
12426;DHT22;6277;49.824;9.562;2023-03-01T14:01:35;11.40;52.70
12426;DHT22;6277;49.824;9.562;2023-03-01T14:04:02;11.40;52.30
12426;DHT22;6277;49.824;9.562;2023-03-01T14:06:31;11.50;52.60
12426;DHT22;6277;49.824;9.562;2023-03-01T14:11:56;11.50;51.50
12426;DHT22;6277;49.824;9.562;2023-03-01T14:14:39;11.60;51.70
12426;DHT22;6277;49.824;9.562;2023-03-01T14:19:40;11.60;51.30
12426;DHT22;6277;49.824;9.562;2023-03-01T14:22:23;11.60;51.40
12426;DHT22;6277;49.824;9.562;2023-03-01T14:24:55;11.70;50.90
12426;DHT22;6277;49.824;9.562;2023-03-01T14:27:21;11.70;51.40
12426;DHT22;6277;49.824;9.562;2023-03-01T14:29:59;11.70;51.80
12426;DHT22;6277;49.824;9.562;2023-03-01T14:32:28;11.70;50.90
12426;DHT22;6277;49.824;9.562;2023-03-01T14:34:54;11.80;51.60
12426;DHT22;6277;49.824;9.562;2023-03-01T14:37:28;11.80;51.80
12426;DHT22;6277;49.824;9.562;2023-03-01T14:39:55;11.90;51.10
12426;DHT22;6277;49.824;9.562;2023-03-01T14:42:23;11.90;51.30
12426;DHT22;6277;49.824;9.562;2023-03-01T14:44:51;12.00;51.60
12426;DHT22;6277;49.824;9.562;2023-03-01T14:47:32;12.10;51.30
12426;DHT22;6277;49.824;9.562;2023-03-01T14:50:15;12.20;50.90
12426;DHT22;6277;49.824;9.562;2023-03-01T14:52:46;12.30;51.50
12426;DHT22;6277;49.824;9.562;2023-03-01T14:55:21;12.40;51.60
12426;DHT22;6277;49.824;9.562;2023-03-01T14:57:49;12.50;51.00
12426;DHT22;6277;49.824;9.562;2023-03-01T15:00:23;12.50;51.20
12426;DHT22;6277;49.824;9.562;2023-03-01T15:02:51;12.60;50.90
12426;DHT22;6277;49.824;9.562;2023-03-01T15:05:23;12.70;50.90
12426;DHT22;6277;49.824;9.562;2023-03-01T15:07:51;12.70;50.80
12426;DHT22;6277;49.824;9.562;2023-03-01T15:10:37;12.80;50.90
12426;DHT22;6277;49.824;9.562;2023-03-01T15:13:22;12.90;50.20
12426;DHT22;6277;49.824;9.562;2023-03-01T15:15:48;13.00;50.30
12426;DHT22;6277;49.824;9.562;2023-03-01T15:18:26;13.00;50.90
12426;DHT22;6277;49.824;9.562;2023-03-01T15:20:53;13.10;50.30
12426;DHT22;6277;49.824;9.562;2023-03-01T15:23:23;13.20;50.60
12426;DHT22;6277;49.824;9.562;2023-03-01T15:25:51;13.20;50.40
12426;DHT22;6277;49.824;9.562;2023-03-01T15:28:26;13.30;50.50
12426;DHT22;6277;49.824;9.562;2023-03-01T15:30:56;13.30;50.30
12426;DHT22;6277;49.824;9.562;2023-03-01T15:35:53;13.40;50.10
12426;DHT22;6277;49.824;9.562;2023-03-01T15:38:33;13.50;50.20
12426;DHT22;6277;49.824;9.562;2023-03-01T15:41:04;13.50;49.50
12426;DHT22;6277;49.824;9.562;2023-03-01T15:43:45;13.50;49.70
12426;DHT22;6277;49.824;9.562;2023-03-01T15:46:20;13.60;49.00
12426;DHT22;6277;49.824;9.562;2023-03-01T15:48:52;13.50;49.10
12426;DHT22;6277;49.824;9.562;2023-03-01T15:51:22;13.50;49.30
12426;DHT22;6277;49.824;9.562;2023-03-01T15:53:53;13.50;48.80
12426;DHT22;6277;49.824;9.562;2023-03-01T15:56:18;13.50;49.20
12426;DHT22;6277;49.824;9.562;2023-03-01T15:58:44;13.40;48.70
12426;DHT22;6277;49.824;9.562;2023-03-01T16:01:15;13.40;49.10
12426;DHT22;6277;49.824;9.562;2023-03-01T16:03:42;13.30;48.70
12426;DHT22;6277;49.824;9.562;2023-03-01T16:06:09;13.30;49.10
12426;DHT22;6277;49.824;9.562;2023-03-01T16:08:35;13.20;49.00
12426;DHT22;6277;49.824;9.562;2023-03-01T16:11:01;13.20;48.90
12426;DHT22;6277;49.824;9.562;2023-03-01T16:13:30;13.10;48.80
12426;DHT22;6277;49.824;9.562;2023-03-01T16:15:57;13.00;48.80
12426;DHT22;6277;49.824;9.562;2023-03-01T16:18:22;12.90;48.80
12426;DHT22;6277;49.824;9.562;2023-03-01T16:20:48;12.80;48.80
12426;DHT22;6277;49.824;9.562;2023-03-01T16:23:14;12.80;48.60
12426;DHT22;6277;49.824;9.562;2023-03-01T16:25:40;12.70;48.60
12426;DHT22;6277;49.824;9.562;2023-03-01T16:28:06;12.50;48.60
12426;DHT22;6277;49.824;9.562;2023-03-01T16:30:34;12.40;48.50
12426;DHT22;6277;49.824;9.562;2023-03-01T16:33:01;12.30;48.40
12426;DHT22;6277;49.824;9.562;2023-03-01T16:35:26;12.20;48.40
12426;DHT22;6277;49.824;9.562;2023-03-01T16:37:52;12.10;48.50
12426;DHT22;6277;49.824;9.562;2023-03-01T16:40:22;11.90;48.40
12426;DHT22;6277;49.824;9.562;2023-03-01T16:42:48;11.80;48.30
12426;DHT22;6277;49.824;9.562;2023-03-01T16:45:15;11.70;48.50
12426;DHT22;6277;49.824;9.562;2023-03-01T16:47:40;11.50;48.60
12426;DHT22;6277;49.824;9.562;2023-03-01T16:50:06;11.40;48.60
12426;DHT22;6277;49.824;9.562;2023-03-01T16:52:33;11.30;48.60
12426;DHT22;6277;49.824;9.562;2023-03-01T16:54:59;11.10;48.60
12426;DHT22;6277;49.824;9.562;2023-03-01T16:57:24;11.00;48.70
12426;DHT22;6277;49.824;9.562;2023-03-01T16:59:52;10.80;48.80
12426;DHT22;6277;49.824;9.562;2023-03-01T17:02:18;10.80;48.90
12426;DHT22;6277;49.824;9.562;2023-03-01T17:04:45;10.60;48.90
12426;DHT22;6277;49.824;9.562;2023-03-01T17:07:11;10.50;48.90
12426;DHT22;6277;49.824;9.562;2023-03-01T17:09:37;10.40;48.90
12426;DHT22;6277;49.824;9.562;2023-03-01T17:12:04;10.20;48.90
12426;DHT22;6277;49.824;9.562;2023-03-01T17:14:29;10.10;48.90
12426;DHT22;6277;49.824;9.562;2023-03-01T17:16:55;10.00;49.10
12426;DHT22;6277;49.824;9.562;2023-03-01T17:19:20;9.80;49.10
12426;DHT22;6277;49.824;9.562;2023-03-01T17:21:46;9.70;49.20
12426;DHT22;6277;49.824;9.562;2023-03-01T17:24:12;9.60;49.30
12426;DHT22;6277;49.824;9.562;2023-03-01T17:26:38;9.50;49.40
12426;DHT22;6277;49.824;9.562;2023-03-01T17:29:04;9.40;49.40
12426;DHT22;6277;49.824;9.562;2023-03-01T17:31:31;9.30;49.50
12426;DHT22;6277;49.824;9.562;2023-03-01T17:33:57;9.20;49.50
12426;DHT22;6277;49.824;9.562;2023-03-01T17:36:23;9.00;49.50
12426;DHT22;6277;49.824;9.562;2023-03-01T17:38:49;9.00;49.70
12426;DHT22;6277;49.824;9.562;2023-03-01T17:41:15;8.80;49.70
12426;DHT22;6277;49.824;9.562;2023-03-01T17:43:44;8.80;49.80
12426;DHT22;6277;49.824;9.562;2023-03-01T17:46:10;8.60;49.90
12426;DHT22;6277;49.824;9.562;2023-03-01T17:48:37;8.50;50.00
12426;DHT22;6277;49.824;9.562;2023-03-01T17:51:10;8.50;50.10
12426;DHT22;6277;49.824;9.562;2023-03-01T17:53:36;8.40;50.20
12426;DHT22;6277;49.824;9.562;2023-03-01T17:56:05;8.30;50.20
12426;DHT22;6277;49.824;9.562;2023-03-01T17:58:31;8.30;50.30